createdAt,value
2022-12-01T00:01:09.682Z,8.93
2022-12-01T00:03:37.103Z,7.80
2022-12-01T00:06:16.036Z,8.90
2022-12-01T00:09:02.256Z,8.32
2022-12-01T00:11:29.109Z,8.30
2022-12-01T00:13:55.636Z,8.68
2022-12-01T00:16:22.384Z,8.65
2022-12-01T00:18:53.612Z,8.65
2022-12-01T00:21:22.786Z,8.18
2022-12-01T00:23:51.816Z,7.97
2022-12-01T00:26:20.031Z,8.77
2022-12-01T00:28:54.607Z,8.73
2022-12-01T00:31:22.101Z,8.40
2022-12-01T00:33:48.778Z,7.75
2022-12-01T00:36:15.525Z,7.97
2022-12-01T00:38:42.154Z,8.57
2022-12-01T00:41:08.871Z,8.55
2022-12-01T00:43:35.577Z,8.77
2022-12-01T00:46:02.315Z,9.30
2022-12-01T00:48:29.081Z,8.25
2022-12-01T00:50:55.790Z,8.43
2022-12-01T00:53:23.061Z,8.43
2022-12-01T00:55:49.687Z,9.25
2022-12-01T00:58:16.373Z,8.80
2022-12-01T01:00:43.155Z,8.55
2022-12-01T01:03:10.659Z,8.82
2022-12-01T01:05:38.781Z,8.55
2022-12-01T01:08:12.921Z,7.70
2022-12-01T01:10:44.272Z,8.70
2022-12-01T01:13:12.189Z,8.95
2022-12-01T01:15:39.213Z,8.23
2022-12-01T01:18:06.515Z,8.82
2022-12-01T01:20:33.568Z,8.73
2022-12-01T01:23:00.202Z,9.43
2022-12-01T01:25:26.821Z,8.13
2022-12-01T01:27:53.347Z,8.38
2022-12-01T01:30:20.875Z,8.65
2022-12-01T01:32:47.554Z,9.32
2022-12-01T01:35:14.157Z,8.60
2022-12-01T01:37:40.779Z,8.13
2022-12-01T01:40:07.959Z,8.95
2022-12-01T01:42:34.455Z,8.63
2022-12-01T01:45:01.072Z,8.48
2022-12-01T01:47:35.990Z,8.07
2022-12-01T01:50:09.710Z,7.68
2022-12-01T01:52:40.272Z,8.18
2022-12-01T01:55:07.899Z,8.27
2022-12-01T01:57:35.153Z,8.00
2022-12-01T02:00:09.251Z,7.25
2022-12-01T02:02:43.958Z,7.75
2022-12-01T02:05:17.903Z,7.97
2022-12-01T02:07:45.615Z,7.40
2022-12-01T02:10:14.564Z,7.57
2022-12-01T02:12:53.002Z,7.60
2022-12-01T02:15:43.058Z,8.15
2022-12-01T02:18:22.031Z,7.70
2022-12-01T02:21:25.615Z,7.38
2022-12-01T02:24:04.227Z,7.65
2022-12-01T02:26:43.770Z,7.68
2022-12-01T02:29:17.310Z,7.80
2022-12-01T02:32:02.898Z,7.10
2022-12-01T02:34:40.222Z,7.20
2022-12-01T02:42:40.158Z,6.80
2022-12-01T02:45:11.601Z,6.68
2022-12-01T02:47:41.223Z,7.55
2022-12-01T02:50:10.175Z,8.43
2022-12-01T02:52:38.687Z,8.05
2022-12-01T02:55:06.025Z,7.65
2022-12-01T02:57:32.530Z,7.85
2022-12-01T03:00:00.022Z,6.28
2022-12-01T03:02:48.826Z,8.43
2022-12-01T03:05:25.135Z,9.68
2022-12-01T03:08:06.128Z,7.60
2022-12-01T03:10:55.750Z,7.78
2022-12-01T03:13:57.890Z,8.57
2022-12-01T03:16:36.957Z,8.07
2022-12-01T03:19:13.041Z,8.50
2022-12-01T03:21:49.052Z,7.88
2022-12-01T03:24:19.557Z,8.50
2022-12-01T03:26:57.006Z,8.20
2022-12-01T03:29:46.458Z,8.25
2022-12-01T03:32:19.503Z,9.27
2022-12-01T03:35:11.091Z,8.65
2022-12-01T03:37:43.399Z,7.43
2022-12-01T03:40:14.738Z,8.32
2022-12-01T03:42:52.916Z,8.10
2022-12-01T03:45:31.475Z,9.15
2022-12-01T03:47:58.141Z,8.10
2022-12-01T03:50:35.628Z,9.20
2022-12-01T03:53:19.383Z,8.63
2022-12-01T03:55:52.405Z,7.70
2022-12-01T03:58:23.298Z,8.70
2022-12-01T04:00:53.395Z,8.15
2022-12-01T04:03:23.275Z,9.02
2022-12-01T04:05:49.872Z,8.18
2022-12-01T04:08:16.693Z,8.23
2022-12-01T04:10:43.415Z,8.13
2022-12-01T04:13:16.841Z,7.97
2022-12-01T04:15:43.823Z,7.80
2022-12-01T04:18:10.351Z,7.47
2022-12-01T04:20:36.857Z,8.25
2022-12-01T04:23:03.591Z,8.07
2022-12-01T04:25:30.139Z,8.10
2022-12-01T04:27:56.617Z,7.72
2022-12-01T04:30:23.512Z,8.95
2022-12-01T04:32:49.998Z,7.80
2022-12-01T04:35:16.552Z,8.25
2022-12-01T04:37:43.210Z,8.82
2022-12-01T04:40:10.214Z,8.30
2022-12-01T04:42:36.768Z,8.57
2022-12-01T04:45:03.862Z,8.65
2022-12-01T04:47:30.397Z,8.25
2022-12-01T04:49:56.914Z,7.97
2022-12-01T04:52:23.691Z,9.00
2022-12-01T04:54:50.179Z,7.93
2022-12-01T04:57:16.691Z,7.93
2022-12-01T04:59:43.308Z,7.88
2022-12-01T05:02:09.963Z,8.55
2022-12-01T05:04:38.797Z,8.30
2022-12-01T05:07:05.752Z,8.15
2022-12-01T05:09:32.291Z,7.80
2022-12-01T05:11:58.788Z,8.50
2022-12-01T05:14:25.412Z,9.07
2022-12-01T05:16:51.908Z,7.93
2022-12-01T05:19:37.119Z,8.38
2022-12-01T05:22:03.686Z,8.55
2022-12-01T05:24:30.190Z,7.38
2022-12-01T05:26:56.818Z,8.45
2022-12-01T05:29:23.436Z,8.38
2022-12-01T05:31:50.001Z,8.77
2022-12-01T05:34:16.805Z,8.02
2022-12-01T05:36:43.440Z,7.80
2022-12-01T05:39:09.942Z,8.15
2022-12-01T05:41:36.550Z,7.05
2022-12-01T05:44:03.515Z,8.18
2022-12-01T05:46:30.015Z,7.70
2022-12-01T05:48:56.672Z,8.43
2022-12-01T05:51:23.219Z,7.82
2022-12-01T05:53:49.954Z,8.65
2022-12-01T05:56:16.523Z,8.15
2022-12-01T05:58:43.128Z,7.32
2022-12-01T06:01:09.689Z,7.57
2022-12-01T06:03:36.313Z,8.35
2022-12-01T06:06:02.917Z,7.82
2022-12-01T06:08:29.483Z,6.40
2022-12-01T06:10:56.065Z,7.07
2022-12-01T06:13:22.636Z,7.72
2022-12-01T06:15:57.549Z,8.05
2022-12-01T06:18:24.933Z,7.38
2022-12-01T06:20:51.415Z,7.85
2022-12-01T06:23:18.141Z,7.68
2022-12-01T06:25:44.711Z,6.97
2022-12-01T06:28:11.180Z,7.00
2022-12-01T06:30:37.818Z,7.13
2022-12-01T06:33:04.471Z,7.80
2022-12-01T06:35:31.005Z,7.10
2022-12-01T06:37:57.631Z,7.32
2022-12-01T06:40:24.358Z,7.38
2022-12-01T06:42:50.836Z,7.40
2022-12-01T06:45:17.411Z,7.38
2022-12-01T06:47:44.003Z,8.13
2022-12-01T06:50:11.907Z,7.47
2022-12-01T06:52:38.535Z,7.30
2022-12-01T06:55:06.036Z,7.38
2022-12-01T06:57:32.774Z,7.80
2022-12-01T06:59:59.578Z,7.38
2022-12-01T07:02:26.649Z,7.82
2022-12-01T07:04:53.207Z,6.55
2022-12-01T07:07:19.902Z,7.40
2022-12-01T07:09:46.771Z,8.27
2022-12-01T07:12:13.468Z,7.68
2022-12-01T07:14:42.548Z,7.28
2022-12-01T07:17:09.932Z,7.30
2022-12-01T07:19:36.543Z,7.25
2022-12-01T07:22:03.261Z,7.00
2022-12-01T07:24:30.620Z,7.50
2022-12-01T07:26:57.115Z,7.60
2022-12-01T07:29:23.782Z,7.78
2022-12-01T07:31:50.331Z,7.05
2022-12-01T07:34:16.820Z,7.93
2022-12-01T07:36:43.381Z,7.68
2022-12-01T07:39:09.914Z,8.02
2022-12-01T07:41:36.432Z,7.78
2022-12-01T07:44:03.272Z,7.28
2022-12-01T07:46:30.000Z,7.05
2022-12-01T07:48:57.141Z,8.13
2022-12-01T07:51:25.520Z,7.53
2022-12-01T07:53:53.123Z,7.57
2022-12-01T07:56:20.929Z,7.20
2022-12-01T07:58:47.589Z,6.90
2022-12-01T08:01:16.792Z,8.05
2022-12-01T08:03:43.729Z,7.20
2022-12-01T08:06:11.809Z,8.30
2022-12-01T08:08:40.108Z,7.60
2022-12-01T08:11:18.999Z,7.78
2022-12-01T08:13:45.760Z,6.95
2022-12-01T08:16:14.833Z,7.00
2022-12-01T08:18:42.872Z,7.50
2022-12-01T08:21:12.348Z,7.07
2022-12-01T08:23:39.197Z,7.03
2022-12-01T08:26:09.226Z,7.00
2022-12-01T08:28:36.923Z,6.90
2022-12-01T08:31:18.292Z,7.35
2022-12-01T08:33:45.771Z,7.22
2022-12-01T08:36:12.353Z,6.72
2022-12-01T08:38:39.051Z,7.60
2022-12-01T08:41:08.347Z,7.70
2022-12-01T08:46:28.886Z,6.25
2022-12-01T08:48:57.863Z,7.50
2022-12-01T08:51:25.699Z,6.97
2022-12-01T08:53:52.343Z,7.47
2022-12-01T08:56:24.229Z,7.10
2022-12-01T08:58:51.779Z,6.82
2022-12-01T09:01:19.390Z,6.97
2022-12-01T09:03:46.860Z,6.45
2022-12-01T09:06:20.287Z,6.72
2022-12-01T09:08:47.496Z,7.10
2022-12-01T09:11:16.827Z,6.57
2022-12-01T09:13:45.422Z,6.40
2022-12-01T09:16:16.140Z,6.38
2022-12-01T09:18:44.364Z,6.32
2022-12-01T09:21:20.071Z,6.90
2022-12-01T09:23:47.269Z,6.72
2022-12-01T09:26:18.637Z,6.90
2022-12-01T09:28:50.131Z,7.15
2022-12-01T09:31:18.517Z,6.88
2022-12-01T09:33:45.162Z,7.25
2022-12-01T09:36:12.049Z,7.07
2022-12-01T09:38:39.090Z,7.20
2022-12-01T09:41:11.864Z,7.22
2022-12-01T09:43:45.959Z,7.20
2022-12-01T09:46:18.462Z,6.40
2022-12-01T09:48:51.476Z,6.75
2022-12-01T09:51:28.257Z,6.85
2022-12-01T09:53:58.375Z,6.40
2022-12-01T09:56:32.446Z,6.80
2022-12-01T09:59:02.341Z,6.00
2022-12-01T10:01:35.692Z,6.40
2022-12-01T10:04:28.603Z,6.80
2022-12-01T10:07:00.824Z,6.45
2022-12-01T10:09:41.548Z,6.88
2022-12-01T10:12:15.259Z,6.15
2022-12-01T10:14:45.507Z,6.47
2022-12-01T10:17:34.746Z,6.18
2022-12-01T10:20:25.050Z,6.35
2022-12-01T10:22:54.360Z,7.32
2022-12-01T10:25:28.914Z,6.38
2022-12-01T10:28:22.295Z,7.00
2022-12-01T10:30:51.399Z,6.63
2022-12-01T10:33:24.992Z,6.88
2022-12-01T10:35:52.756Z,7.82
2022-12-01T10:38:29.654Z,7.93
2022-12-01T10:40:59.959Z,7.43
2022-12-01T10:43:34.055Z,7.28
2022-12-01T10:46:05.892Z,7.07
2022-12-01T10:48:32.476Z,7.55
2022-12-01T10:51:15.897Z,7.85
2022-12-01T10:53:42.511Z,7.57
2022-12-01T10:56:16.158Z,8.60
2022-12-01T10:58:53.801Z,7.75
2022-12-01T11:01:24.748Z,8.43
2022-12-01T11:03:55.606Z,8.18
2022-12-01T11:06:25.937Z,7.90
2022-12-01T11:09:00.036Z,8.52
2022-12-01T11:11:28.647Z,8.10
2022-12-01T11:13:56.875Z,7.65
2022-12-01T11:16:44.853Z,7.80
2022-12-01T11:19:14.312Z,8.40
2022-12-01T11:21:52.910Z,7.20
2022-12-01T11:24:44.884Z,8.18
2022-12-01T11:27:21.276Z,8.07
2022-12-01T11:29:54.698Z,8.00
2022-12-01T11:32:23.473Z,8.48
2022-12-01T11:35:04.492Z,7.80
2022-12-01T11:37:50.480Z,8.55
2022-12-01T11:40:44.939Z,7.40
2022-12-01T11:43:43.743Z,7.95
2022-12-01T11:46:13.248Z,7.95
2022-12-01T11:48:40.484Z,7.65
2022-12-01T11:51:08.715Z,7.38
2022-12-01T11:53:38.152Z,7.47
2022-12-01T11:56:28.895Z,7.15
2022-12-01T11:59:06.544Z,6.70
2022-12-01T12:01:42.098Z,7.22
2022-12-01T12:04:09.138Z,7.00
2022-12-01T12:07:17.809Z,6.85
2022-12-01T12:10:03.540Z,6.68
2022-12-01T12:12:36.572Z,7.13
2022-12-01T12:15:16.317Z,7.00
2022-12-01T12:18:21.252Z,6.72
2022-12-01T12:21:15.851Z,6.38
2022-12-01T12:23:55.747Z,6.63
2022-12-01T12:26:27.023Z,6.38
2022-12-01T12:29:30.503Z,6.43
2022-12-01T12:32:23.392Z,6.15
2022-12-01T12:35:18.316Z,6.85
2022-12-01T12:38:00.354Z,6.50
2022-12-01T12:40:40.949Z,6.53
2022-12-01T12:43:10.518Z,5.95
2022-12-01T12:45:59.979Z,6.97
2022-12-01T12:48:29.355Z,5.82
2022-12-01T12:51:04.476Z,5.68
2022-12-01T12:53:41.110Z,6.03
2022-12-01T12:56:13.988Z,5.97
2022-12-01T12:58:57.574Z,6.03
2022-12-01T13:03:56.453Z,6.15
2022-12-01T13:06:32.792Z,6.10
2022-12-01T13:09:08.174Z,6.35
2022-12-01T13:11:59.637Z,5.28
2022-12-01T13:14:37.167Z,6.25
2022-12-01T13:17:26.100Z,5.75
2022-12-01T13:19:52.589Z,5.57
2022-12-01T13:22:29.641Z,6.18
2022-12-01T13:24:56.532Z,6.25
2022-12-01T13:27:25.776Z,6.18
2022-12-01T13:29:54.032Z,5.28
2022-12-01T13:58:25.111Z,5.60
2022-12-01T14:00:51.875Z,5.30
2022-12-01T14:03:21.448Z,6.00
2022-12-01T14:05:57.711Z,5.28
2022-12-01T14:08:28.630Z,5.18
2022-12-01T14:11:07.306Z,5.57
2022-12-01T14:16:12.908Z,5.20
2022-12-01T14:18:44.322Z,4.97
2022-12-01T14:21:12.490Z,5.35
2022-12-01T14:23:59.848Z,4.80
2022-12-01T14:26:28.698Z,4.90
2022-12-01T14:28:55.909Z,5.22
2022-12-01T14:31:24.628Z,5.20
2022-12-01T14:33:59.248Z,5.50
2022-12-01T14:40:18.039Z,5.22
2022-12-01T14:43:06.096Z,4.70
2022-12-01T14:45:40.087Z,4.80
2022-12-01T14:48:12.686Z,5.10
2022-12-01T14:50:46.950Z,5.45
2022-12-01T14:53:20.932Z,4.55
2022-12-01T14:56:14.850Z,4.72
2022-12-01T14:58:52.392Z,5.05
2022-12-01T15:01:20.861Z,5.03
2022-12-01T15:03:51.415Z,4.45
2022-12-01T15:06:24.544Z,4.70
2022-12-01T15:14:35.063Z,4.65
2022-12-01T15:17:05.694Z,4.05
2022-12-01T15:19:34.618Z,4.28
2022-12-01T15:22:06.061Z,4.68
2022-12-01T15:24:34.290Z,4.80
2022-12-01T15:27:04.032Z,4.43
2022-12-01T15:29:58.718Z,4.32
2022-12-01T15:32:27.157Z,4.50
2022-12-01T15:34:55.671Z,4.53
2022-12-01T15:37:25.167Z,4.82
2022-12-01T15:40:00.905Z,4.78
2022-12-01T15:42:39.680Z,4.38
2022-12-01T15:45:15.284Z,4.75
2022-12-01T15:47:43.677Z,4.30
2022-12-01T15:50:31.299Z,4.75
2022-12-01T15:52:59.410Z,4.75
2022-12-01T15:55:30.882Z,4.30
2022-12-01T15:57:58.840Z,4.75
2022-12-01T16:00:26.285Z,4.25
2022-12-01T16:02:55.493Z,4.75
2022-12-01T16:05:29.198Z,5.10
2022-12-01T16:08:13.375Z,5.03
2022-12-01T16:10:40.612Z,5.03
2022-12-01T16:13:40.887Z,4.85
2022-12-01T16:16:30.223Z,4.25
2022-12-01T16:19:02.216Z,4.22
2022-12-01T16:21:32.991Z,4.40
2022-12-01T16:24:05.308Z,3.72
2022-12-01T16:26:33.479Z,4.43
2022-12-01T16:29:00.408Z,4.38
2022-12-01T16:31:27.509Z,4.32
2022-12-01T16:34:09.836Z,4.03
2022-12-01T16:36:45.488Z,4.68
2022-12-01T16:39:16.417Z,4.43
2022-12-01T16:41:47.940Z,4.43
2022-12-01T16:44:30.609Z,4.22
2022-12-01T16:46:57.485Z,3.92
2022-12-01T16:49:24.186Z,3.88
2022-12-01T16:51:56.042Z,4.90
2022-12-01T16:54:23.962Z,3.47
2022-12-01T16:56:51.334Z,4.57
2022-12-01T16:59:18.428Z,4.68
2022-12-01T17:01:45.179Z,4.15
2022-12-01T17:04:11.919Z,4.63
2022-12-01T17:06:38.791Z,4.63
2022-12-01T17:09:05.890Z,4.00
2022-12-01T17:11:33.139Z,3.88
2022-12-01T17:13:59.875Z,4.90
2022-12-01T17:16:27.078Z,4.13
2022-12-01T17:18:53.861Z,4.15
2022-12-01T17:21:20.521Z,4.93
2022-12-01T17:23:47.433Z,4.38
2022-12-01T17:26:19.737Z,4.50
2022-12-01T17:28:46.967Z,5.15
2022-12-01T17:31:14.454Z,4.40
2022-12-01T17:33:41.522Z,4.03
2022-12-01T17:36:11.588Z,4.40
2022-12-01T17:38:39.987Z,4.95
2022-12-01T17:41:09.512Z,4.43
2022-12-01T17:43:37.268Z,4.57
2022-12-01T17:46:05.809Z,4.57
2022-12-01T17:48:44.405Z,4.70
2022-12-01T17:51:12.855Z,4.47
2022-12-01T17:53:40.365Z,4.85
2022-12-01T17:56:12.634Z,4.43
2022-12-01T17:58:40.182Z,4.57
2022-12-01T18:01:12.965Z,4.80
2022-12-01T18:03:39.531Z,4.93
2022-12-01T18:06:06.437Z,4.65
2022-12-01T18:08:35.700Z,5.65
2022-12-01T18:11:07.809Z,4.63
2022-12-01T18:13:43.805Z,4.30
2022-12-01T18:16:17.000Z,4.93
2022-12-01T18:18:44.036Z,4.90
2022-12-01T18:21:14.615Z,4.78
2022-12-01T18:23:41.560Z,5.45
2022-12-01T18:26:15.932Z,5.10
2022-12-01T18:28:43.565Z,5.30
2022-12-01T18:31:12.944Z,4.57
2022-12-01T18:33:42.027Z,4.65
2022-12-01T18:36:14.410Z,4.78
2022-12-01T18:38:41.263Z,5.00
2022-12-01T18:41:08.317Z,4.80
2022-12-01T18:43:34.963Z,5.15
2022-12-01T18:46:04.087Z,4.95
2022-12-01T18:48:30.781Z,5.22
2022-12-01T18:51:03.001Z,4.55
2022-12-01T18:53:29.824Z,4.15
2022-12-01T18:55:56.504Z,4.90
2022-12-01T18:58:23.128Z,5.70
2022-12-01T19:00:49.834Z,5.00
2022-12-01T19:03:16.435Z,4.75
2022-12-01T19:05:43.196Z,5.20
2022-12-01T19:08:09.829Z,4.88
2022-12-01T19:10:36.433Z,4.47
2022-12-01T19:13:03.230Z,5.22
2022-12-01T19:15:29.890Z,5.28
2022-12-01T19:17:56.409Z,4.40
2022-12-01T19:20:23.048Z,5.10
2022-12-01T19:22:49.532Z,5.30
2022-12-01T19:25:16.065Z,5.95
2022-12-01T19:27:42.799Z,5.03
2022-12-01T19:30:09.806Z,5.10
2022-12-01T19:32:36.488Z,6.22
2022-12-01T19:35:03.722Z,5.90
2022-12-01T19:37:30.257Z,4.70
2022-12-01T19:39:56.764Z,5.20
2022-12-01T19:42:23.543Z,5.22
2022-12-01T19:44:50.534Z,5.43
2022-12-01T19:47:21.867Z,5.50
2022-12-01T19:49:49.080Z,5.80
2022-12-01T19:52:15.583Z,5.55
2022-12-01T19:54:42.739Z,5.65
2022-12-01T19:57:09.365Z,5.05
2022-12-01T19:59:35.924Z,5.72
2022-12-01T20:02:02.508Z,6.15
2022-12-01T20:04:29.268Z,6.18
2022-12-01T20:06:55.774Z,6.80
2022-12-01T20:09:22.689Z,4.82
2022-12-01T20:11:49.312Z,5.70
2022-12-01T20:14:15.995Z,6.15
2022-12-01T20:16:42.505Z,5.95
2022-12-01T20:19:10.558Z,5.88
2022-12-01T20:21:42.281Z,6.10
2022-12-01T20:24:13.201Z,5.72
2022-12-01T20:26:46.100Z,6.05
2022-12-01T20:29:24.522Z,5.47
2022-12-01T20:31:52.895Z,5.93
2022-12-01T20:34:32.309Z,6.75
2022-12-01T20:36:59.384Z,6.28
2022-12-01T20:39:26.989Z,6.72
2022-12-01T20:41:53.700Z,6.40
2022-12-01T20:44:20.667Z,6.20
2022-12-01T20:46:47.742Z,6.22
2022-12-01T20:49:16.085Z,6.18
2022-12-01T20:51:42.805Z,5.63
2022-12-01T20:54:29.279Z,6.72
2022-12-01T20:56:56.760Z,6.00
2022-12-01T20:59:23.690Z,6.57
2022-12-01T21:01:50.208Z,6.60
2022-12-01T21:04:17.833Z,6.80
2022-12-01T21:06:44.495Z,7.30
2022-12-01T21:09:13.024Z,6.53
2022-12-01T21:12:05.298Z,5.85
2022-12-01T21:14:47.438Z,6.60
2022-12-01T21:17:29.699Z,6.60
2022-12-01T21:20:02.462Z,5.95
2022-12-01T21:22:29.073Z,7.05
2022-12-01T21:25:06.962Z,6.45
2022-12-01T21:27:33.668Z,6.22
2022-12-01T21:30:00.804Z,6.97
2022-12-01T21:32:31.533Z,6.13
2022-12-01T21:35:07.721Z,5.45
2022-12-01T21:37:34.437Z,7.20
2022-12-01T21:40:00.977Z,6.55
2022-12-01T21:42:30.497Z,6.10
2022-12-01T21:44:57.708Z,7.07
2022-12-01T21:47:27.251Z,6.57
2022-12-01T21:49:59.567Z,6.03
2022-12-01T21:52:30.352Z,6.68
2022-12-01T21:55:23.409Z,6.90
2022-12-01T21:57:51.947Z,6.32
2022-12-01T22:00:21.673Z,6.40
2022-12-01T22:02:50.868Z,6.63
2022-12-01T22:05:38.172Z,7.43
2022-12-01T22:08:26.795Z,7.10
2022-12-01T22:11:02.046Z,7.25
2022-12-01T22:13:45.285Z,6.50
2022-12-01T22:16:25.932Z,6.97
2022-12-01T22:18:55.262Z,6.60
2022-12-01T22:21:21.703Z,6.60
2022-12-01T22:24:10.131Z,7.30
2022-12-01T22:26:47.819Z,6.45
2022-12-01T22:29:26.373Z,7.22
2022-12-01T22:32:22.214Z,7.05
2022-12-01T22:34:56.395Z,6.38
2022-12-01T22:37:39.630Z,6.82
2022-12-01T22:40:34.745Z,7.20
2022-12-01T22:43:21.102Z,6.10
2022-12-01T22:46:00.967Z,7.82
2022-12-01T22:48:27.534Z,6.47
2022-12-01T22:50:54.589Z,6.38
2022-12-01T22:53:31.089Z,7.63
2022-12-01T22:56:00.760Z,7.50
2022-12-01T22:58:32.122Z,7.03
2022-12-01T23:01:07.713Z,7.20
2022-12-01T23:03:34.315Z,7.30
2022-12-01T23:06:00.836Z,7.40
2022-12-01T23:08:27.427Z,7.15
2022-12-01T23:10:54.051Z,6.75
2022-12-01T23:13:23.217Z,7.13
2022-12-01T23:15:51.957Z,7.32
2022-12-01T23:18:28.312Z,7.60
2022-12-01T23:21:00.249Z,5.72
2022-12-01T23:23:31.930Z,6.75
2022-12-01T23:25:59.240Z,6.72
2022-12-01T23:28:25.804Z,7.30
2022-12-01T23:30:56.425Z,7.07
2022-12-01T23:33:31.676Z,6.35
2022-12-01T23:36:01.087Z,7.43
2022-12-01T23:38:38.054Z,7.28
2022-12-01T23:41:07.623Z,7.32
2022-12-01T23:43:43.055Z,6.97
2022-12-01T23:46:22.850Z,6.45
2022-12-01T23:48:57.357Z,7.55
2022-12-01T23:51:39.883Z,7.28
2022-12-01T23:54:23.671Z,6.80
2022-12-01T23:56:53.950Z,8.05
2022-12-01T23:59:21.330Z,6.38
